Time;durP1;ratioP1;P1;durP2;ratioP2;P2;SDS_P1;SDS_P2;PMS_P1;PMS_P2;Temp;Humidity;BMP_temperature;BMP_pressure;BME280_temperature;BME280_humidity;BME280_pressure;Samples;Min_cycle;Max_cycle;Signal;HPM_P1;HPM_P2
2023/08/25 12:21:05;;;;;;;9.40;6.10;;;;;;;17.58;100.00;100286.50;693904;27;20563;-76
2023/08/25 12:21:35;;;;;;;10.20;6.30;;;;;;;17.96;100.00;100282.59;692707;28;1209;-76
2023/08/25 12:21:57;;;;;;;10.43;6.57;;;;;;;18.17;100.00;100286.81;689952;28;1188;-76
2023/08/25 12:22:18;;;;;;;9.07;6.63;;;;;;;18.34;100.00;100278.66;688029;28;1271;-76
2023/08/25 12:23:05;;;;;;;9.15;6.80;;;;;;;18.87;100.00;100290.34;687959;28;1683;-76
2023/08/25 12:23:32;;;;;;;12.95;7.82;;;;;;;19.26;100.00;100264.22;684470;28;1480;-76
2023/08/25 12:23:52;;;;;;;12.02;8.30;;;;;;;19.52;100.00;100254.94;692271;28;1036;-76
2023/08/25 12:24:13;;;;;;;10.13;8.13;;;;;;;19.72;100.00;100248.41;684553;28;980;-77
2023/08/25 12:24:34;;;;;;;9.10;7.70;;;;;;;20.07;100.00;100256.63;678751;28;1455;-77
2023/08/25 12:24:54;;;;;;;19.60;8.13;;;;;;;20.22;100.00;100250.16;685732;28;1629;-76
2023/08/25 12:25:15;;;;;;;19.77;8.10;;;;;;;20.48;100.00;100235.47;692287;28;1859;-77
2023/08/25 12:25:36;;;;;;;19.30;7.80;;;;;;;20.66;100.00;100227.09;689110;28;972;-76
2023/08/25 12:25:56;;;;;;;12.20;7.70;;;;;;;20.97;100.00;100225.56;687155;28;1143;-76
2023/08/25 12:26:17;;;;;;;12.73;7.97;;;;;;;21.25;98.90;100203.63;684478;28;1629;-76
2023/08/25 12:26:38;;;;;;;13.43;8.00;;;;;;;21.55;96.33;100205.53;687915;28;1378;-76
2023/08/25 12:26:59;;;;;;;10.20;8.03;;;;;;;21.80;94.41;100199.59;687267;28;1246;-75
2023/08/25 12:27:19;;;;;;;10.27;8.13;;;;;;;21.83;93.42;100170.28;684536;28;1009;-77
2023/08/25 12:27:40;;;;;;;10.20;8.90;;;;;;;22.01;92.35;100182.16;686028;28;1056;-76
2023/08/25 12:28:01;;;;;;;12.47;9.37;;;;;;;22.25;91.51;100182.34;686352;28;1481;-76
2023/08/25 12:28:22;;;;;;;12.50;10.00;;;;;;;22.40;90.73;100181.91;683823;28;1279;-75
2023/08/25 12:28:43;;;;;;;13.40;10.37;;;;;;;22.63;90.16;100184.75;687427;28;1166;-75
2023/08/25 12:29:06;;;;;;;12.82;10.60;;;;;;;22.60;90.05;100172.41;687121;28;1163;-77
2023/08/25 12:29:26;;;;;;;12.70;10.70;;;;;;;22.60;89.94;100169.75;687237;28;1118;-76
2023/08/25 12:29:48;;;;;;;12.43;10.75;;;;;;;22.78;90.78;100172.72;695372;28;1210;-76
2023/08/25 12:30:09;;;;;;;12.80;10.80;;;;;;;23.10;91.49;100178.78;692045;28;1132;-75
2023/08/25 12:30:30;;;;;;;16.40;11.77;;;;;;;23.56;91.32;100198.50;689960;28;1040;-76
2023/08/25 12:30:50;;;;;;;16.50;12.50;;;;;;;24.07;90.48;100208.25;684347;28;1218;-75
2023/08/25 12:31:11;;;;;;;16.83;13.10;;;;;;;24.47;89.15;100189.91;686438;28;1024;-76
2023/08/25 12:31:32;;;;;;;15.60;12.88;;;;;;;24.92;88.30;100180.94;686039;28;1465;-75
2023/08/25 12:31:54;;;;;;;15.63;12.35;;;;;;;25.59;86.91;100209.31;687268;28;1374;-76
2023/08/25 12:32:14;;;;;;;13.65;11.98;;;;;;;26.01;84.42;100186.97;689507;28;1634;-77
2023/08/25 12:32:35;;;;;;;13.45;11.68;;;;;;;26.45;81.98;100198.34;688956;28;1144;-76
2023/08/25 12:32:56;;;;;;;14.00;11.17;;;;;;;26.61;79.87;100190.44;689637;28;1101;-76
2023/08/25 12:33:17;;;;;;;14.75;10.65;;;;;;;26.79;79.07;100194.00;687248;28;1012;-78
2023/08/25 12:33:37;;;;;;;12.65;9.68;;;;;;;26.86;78.27;100193.72;681630;29;1223;-77
2023/08/25 12:33:58;;;;;;;10.88;8.77;;;;;;;26.88;77.36;100186.47;687125;28;1164;-77
2023/08/25 12:34:19;;;;;;;11.40;7.60;;;;;;;26.86;77.60;100183.00;683635;28;2071;-81
2023/08/25 12:34:40;;;;;;;11.43;6.88;;;;;;;26.88;77.70;100170.41;681034;28;2484;-79
2023/08/25 12:35:00;;;;;;;11.20;6.10;;;;;;;26.91;78.15;100179.16;681539;29;929;-79
2023/08/25 12:35:23;;;;;;;9.30;5.85;;;;;;;26.97;77.86;100186.88;683992;28;1131;-79
2023/08/25 12:35:43;;;;;;;8.75;5.60;;;;;;;26.88;78.02;100165.94;684596;28;981;-79
2023/08/25 12:36:04;;;;;;;8.57;5.70;;;;;;;26.91;77.73;100171.13;681760;28;2565;-80
2023/08/25 12:36:25;;;;;;;7.88;5.70;;;;;;;26.91;77.94;100163.09;686989;28;1008;-80
2023/08/25 12:36:45;;;;;;;8.85;5.72;;;;;;;26.92;78.12;100164.81;687090;28;1201;-80
2023/08/25 12:37:06;;;;;;;7.50;5.35;;;;;;;27.07;78.25;100176.59;686384;28;1185;-79
2023/08/25 12:37:28;;;;;;;7.83;5.07;;;;;;;27.10;78.89;100157.69;687075;28;1394;-80
2023/08/25 12:37:49;;;;;;;8.93;4.78;;;;;;;27.33;78.95;100155.63;689940;28;1998;-80
2023/08/25 12:38:10;;;;;;;10.30;4.80;;;;;;;27.63;78.28;100154.06;689931;28;1045;-80
2023/08/25 12:38:32;;;;;;;8.63;4.70;;;;;;;28.02;77.70;100168.09;687211;28;1096;-80
2023/08/25 12:38:52;;;;;;;6.47;4.35;;;;;;;28.38;76.68;100164.34;684953;28;1117;-80
2023/08/25 12:39:13;;;;;;;5.53;4.20;;;;;;;28.67;75.57;100159.13;687403;28;1251;-80
2023/08/25 12:39:34;;;;;;;5.63;4.32;;;;;;;28.85;73.67;100156.31;684296;28;1213;-80
2023/08/25 12:39:54;;;;;;;5.82;4.50;;;;;;;28.97;72.39;100155.59;687379;28;1169;-79
2023/08/25 12:40:24;;;;;;;6.00;4.50;;;;;;;29.18;71.91;100152.56;684620;28;1117;-80
2023/08/25 12:40:45;;;;;;;6.20;4.20;;;;;;;29.26;71.54;100154.81;688406;28;1915;-80
2023/08/25 12:41:06;;;;;;;7.40;4.10;;;;;;;29.37;70.84;100160.38;687160;28;1167;-80
2023/08/25 12:41:26;;;;;;;6.20;3.60;;;;;;;29.47;71.34;100160.72;684597;28;969;-80
2023/08/25 12:41:47;;;;;;;6.00;3.50;;;;;;;29.55;70.55;100163.81;686775;28;1265;-80
2023/08/25 12:42:08;;;;;;;4.85;3.50;;;;;;;29.65;69.62;100168.59;689524;28;1142;-82
2023/08/25 12:42:29;;;;;;;7.35;3.67;;;;;;;29.64;69.36;100159.66;686951;28;1520;-80
2023/08/25 12:42:53;;;;;;;7.13;3.42;;;;;;;29.62;69.16;100160.75;687633;28;1170;-80
2023/08/25 12:43:14;;;;;;;4.30;3.20;;;;;;;29.58;69.06;100180.69;684564;28;985;-79
2023/08/25 12:43:35;;;;;;;4.57;3.22;;;;;;;29.42;68.70;100173.53;684897;28;1116;-80
2023/08/25 12:43:57;;;;;;;6.18;3.50;;;;;;;29.28;68.55;100180.59;688846;28;1511;-79
2023/08/25 12:44:18;;;;;;;6.45;3.30;;;;;;;29.12;68.52;100174.44;687409;28;1052;-80
2023/08/25 12:44:39;;;;;;;5.75;3.38;;;;;;;28.93;68.68;100194.34;693014;28;1696;-80
2023/08/25 12:44:59;;;;;;;4.63;3.30;;;;;;;28.77;68.84;100191.63;692079;28;1507;-80
2023/08/25 12:45:21;;;;;;;4.55;3.40;;;;;;;28.55;69.07;100198.28;689983;28;1179;-79
2023/08/25 12:45:42;;;;;;;6.57;3.33;;;;;;;28.23;69.84;100183.94;688408;28;1091;-80
2023/08/25 12:46:03;;;;;;;6.20;3.20;;;;;;;28.00;70.24;100180.72;683539;28;1756;-78
2023/08/25 12:46:23;;;;;;;6.47;3.00;;;;;;;27.81;70.80;100187.09;679691;29;1306;-78
2023/08/25 12:46:44;;;;;;;5.90;3.00;;;;;;;27.61;70.55;100180.94;683754;28;1224;-78
2023/08/25 12:47:05;;;;;;;6.18;2.90;;;;;;;27.58;70.53;100199.00;692170;28;1258;-79
2023/08/25 12:47:26;;;;;;;4.35;2.75;;;;;;;27.42;71.24;100193.59;692638;28;1085;-78
2023/08/25 12:47:47;;;;;;;4.60;2.83;;;;;;;27.34;71.82;100197.53;686835;28;1263;-78
2023/08/25 12:48:08;;;;;;;4.13;2.95;;;;;;;27.27;71.73;100198.81;687560;28;1048;-77
2023/08/25 12:48:28;;;;;;;4.33;3.03;;;;;;;27.12;71.83;100175.50;690325;28;1108;-78
2023/08/25 12:48:49;;;;;;;4.13;3.10;;;;;;;27.16;71.51;100190.47;691902;28;1519;-76
2023/08/25 12:49:10;;;;;;;4.32;3.00;;;;;;;27.10;71.05;100189.81;686126;28;1078;-78
2023/08/25 12:49:30;;;;;;;4.67;3.00;;;;;;;27.14;70.64;100189.66;684850;28;1351;-77
2023/08/25 12:49:51;;;;;;;6.00;3.20;;;;;;;27.17;70.39;100202.91;684370;28;1544;-77
2023/08/25 12:50:12;;;;;;;6.60;3.37;;;;;;;27.24;70.85;100215.03;684602;28;968;-77
2023/08/25 12:50:32;;;;;;;6.28;3.20;;;;;;;27.30;70.55;100214.69;687099;28;1508;-77
2023/08/25 12:50:53;;;;;;;6.22;3.05;;;;;;;27.34;69.42;100205.59;689869;28;1159;-80
2023/08/25 12:51:15;;;;;;;6.67;3.00;;;;;;;27.51;69.15;100220.78;692879;28;960;-79
2023/08/25 12:51:36;;;;;;;6.68;3.10;;;;;;;27.73;69.53;100221.50;692333;28;1576;-78
2023/08/25 12:51:57;;;;;;;4.50;2.87;;;;;;;27.98;68.09;100228.22;689839;28;1069;-79
2023/08/25 12:52:18;;;;;;;4.25;2.70;;;;;;;28.12;67.55;100222.97;687309;28;1175;-78
2023/08/25 12:52:38;;;;;;;3.92;2.50;;;;;;;28.19;66.46;100219.00;688246;28;1240;-77
2023/08/25 12:52:59;;;;;;;3.85;2.70;;;;;;;28.32;65.79;100223.69;692267;28;1008;-78
2023/08/25 12:53:20;;;;;;;3.63;2.57;;;;;;;28.56;65.70;100231.31;692300;28;1154;-78
2023/08/25 12:53:40;;;;;;;4.05;2.60;;;;;;;28.60;65.27;100208.75;689089;28;1052;-78
2023/08/25 12:54:13;;;;;;;4.30;2.50;;;;;;;28.86;64.99;100225.19;689131;28;1130;-78
2023/08/25 12:54:33;;;;;;;3.97;2.35;;;;;;;28.76;64.39;100205.19;684311;28;1288;-78
2023/08/25 12:54:54;;;;;;;5.83;2.50;;;;;;;28.72;64.07;100213.38;687548;28;1143;-78
2023/08/25 12:55:14;;;;;;;6.00;2.50;;;;;;;28.55;63.26;100217.06;681789;28;1053;-79
2023/08/25 12:55:36;;;;;;;6.77;2.50;;;;;;;28.40;62.87;100218.78;681318;29;1164;-78
2023/08/25 12:55:56;;;;;;;4.80;2.40;;;;;;;28.17;62.72;100214.66;683527;28;1351;-78
2023/08/25 12:56:25;;;;;;;4.17;2.40;;;;;;;27.88;62.99;100218.00;684797;28;976;-78
2023/08/25 12:56:46;;;;;;;4.60;2.40;;;;;;;27.67;63.71;100221.81;687451;28;1140;-79
2023/08/25 12:57:06;;;;;;;4.93;2.50;;;;;;;27.44;63.99;100216.69;689481;28;1361;-78
2023/08/25 12:57:27;;;;;;;4.50;2.43;;;;;;;27.20;64.65;100218.81;689737;28;1086;-78
2023/08/25 12:57:52;;;;;;;5.13;2.33;;;;;;;27.01;64.86;100222.41;689402;28;1439;-78
2023/08/25 12:58:16;;;;;;;5.10;2.30;;;;;;;26.82;65.17;100231.31;690100;28;1073;-78
2023/08/25 12:58:39;;;;;;;4.40;2.30;;;;;;;26.58;65.70;100205.75;684592;28;1041;-78
2023/08/25 12:59:02;;;;;;;4.20;2.40;;;;;;;26.32;65.95;100189.13;681880;28;1067;-78
2023/08/25 12:59:23;;;;;;;3.40;2.35;;;;;;;26.25;66.33;100197.44;684837;28;1402;-78
2023/08/25 12:59:43;;;;;;;3.30;2.30;;;;;;;26.22;67.10;100210.97;689062;28;1178;-77
2023/08/25 13:00:05;;;;;;;3.10;2.35;;;;;;;26.20;67.37;100204.84;687268;28;1147;-79
2023/08/25 13:00:27;;;;;;;2.67;2.20;;;;;;;26.17;68.10;100201.44;689689;28;1999;-78
2023/08/25 13:00:48;;;;;;;2.90;2.17;;;;;;;26.09;68.19;100193.75;689035;28;1952;-77
2023/08/25 13:01:09;;;;;;;3.13;2.40;;;;;;;26.18;68.40;100211.19;686716;28;1251;-77
2023/08/25 13:01:29;;;;;;;3.40;2.63;;;;;;;26.11;68.49;100198.09;682122;28;999;-78
2023/08/25 13:01:50;;;;;;;3.58;2.75;;;;;;;26.21;68.48;100208.34;683297;28;1073;-78
2023/08/25 13:02:11;;;;;;;4.38;2.60;;;;;;;26.21;68.58;100203.88;684760;28;988;-77
2023/08/25 13:02:31;;;;;;;4.70;2.77;;;;;;;26.25;68.09;100200.13;687068;28;1151;-77
2023/08/25 13:02:52;;;;;;;4.60;2.65;;;;;;;26.20;68.19;100182.56;687301;28;1025;-78
2023/08/25 13:03:13;;;;;;;3.80;2.40;;;;;;;26.26;67.74;100199.16;684607;28;1444;-77
2023/08/25 13:03:35;;;;;;;3.80;2.20;;;;;;;26.31;67.76;100192.75;684453;28;1265;-78
2023/08/25 13:03:55;;;;;;;4.00;2.30;;;;;;;26.33;67.52;100190.88;679434;29;1207;-77
2023/08/25 13:04:16;;;;;;;5.55;2.70;;;;;;;26.40;67.25;100195.00;679423;29;1092;-78
2023/08/25 13:04:37;;;;;;;7.38;2.90;;;;;;;26.60;67.29;100202.06;682811;28;1187;-77
2023/08/25 13:04:58;;;;;;;6.67;2.70;;;;;;;26.74;66.52;100176.47;689997;28;1174;-77
2023/08/25 13:05:19;;;;;;;4.90;2.60;;;;;;;27.02;66.04;100188.44;689985;28;1201;-77
2023/08/25 13:05:40;;;;;;;3.75;2.50;;;;;;;27.32;65.32;100180.69;692365;28;1165;-78
2023/08/25 13:06:03;;;;;;;4.47;2.70;;;;;;;27.63;64.85;100184.44;691799;28;1417;-77
2023/08/25 13:06:23;;;;;;;4.93;2.72;;;;;;;28.22;63.54;100201.00;689406;28;1009;-78
2023/08/25 13:06:45;;;;;;;5.45;2.70;;;;;;;28.70;62.34;100199.19;689132;28;1207;-78
2023/08/25 13:07:05;;;;;;;5.25;2.53;;;;;;;29.14;61.11;100184.13;685352;28;1092;-78
2023/08/25 13:07:26;;;;;;;5.45;2.53;;;;;;;29.60;59.38;100184.13;684584;28;1049;-78
2023/08/25 13:07:47;;;;;;;5.30;2.40;;;;;;;29.99;58.13;100190.66;681874;28;1174;-77
2023/08/25 13:08:08;;;;;;;3.65;2.50;;;;;;;30.26;56.62;100186.34;684602;28;1304;-78
2023/08/25 13:08:29;;;;;;;4.22;2.30;;;;;;;30.58;56.12;100184.28;681764;29;1137;-78
2023/08/25 13:08:49;;;;;;;4.55;2.40;;;;;;;30.86;55.72;100185.09;684993;28;1349;-78
2023/08/25 13:09:10;;;;;;;5.17;2.40;;;;;;;31.17;55.22;100182.22;684645;28;1064;-79
2023/08/25 13:09:30;;;;;;;5.00;2.40;;;;;;;31.38;54.39;100187.94;687021;28;1253;-79
2023/08/25 13:09:51;;;;;;;4.77;2.50;;;;;;;31.56;53.44;100188.50;684589;28;1017;-78
2023/08/25 13:10:12;;;;;;;3.97;2.40;;;;;;;31.55;52.63;100186.75;686897;28;1230;-78
2023/08/25 13:10:32;;;;;;;3.13;2.10;;;;;;;31.47;52.42;100184.59;680505;28;1104;-78
2023/08/25 13:10:53;;;;;;;3.30;2.10;;;;;;;31.54;52.59;100184.16;684518;28;961;-78
2023/08/25 13:11:14;;;;;;;3.25;2.00;;;;;;;31.56;52.63;100183.09;689883;28;1417;-78
2023/08/25 13:11:35;;;;;;;3.43;2.17;;;;;;;31.59;52.24;100184.69;687009;28;1484;-78
2023/08/25 13:11:56;;;;;;;3.00;2.00;;;;;;;31.49;51.86;100171.00;687474;28;1046;-79
2023/08/25 13:12:17;;;;;;;3.03;2.10;;;;;;;31.39;51.62;100173.47;681745;28;1494;-79
2023/08/25 13:12:38;;;;;;;2.70;1.85;;;;;;;31.29;51.84;100175.94;681710;28;1457;-78
2023/08/25 13:12:59;;;;;;;2.80;1.80;;;;;;;31.22;51.97;100184.59;686378;28;1475;-79
2023/08/25 13:13:19;;;;;;;3.13;1.95;;;;;;;31.03;52.35;100167.81;686713;28;1190;-78
2023/08/25 13:13:41;;;;;;;3.92;2.15;;;;;;;30.90;52.61;100173.16;688059;28;894;-78
2023/08/25 13:14:02;;;;;;;4.10;2.20;;;;;;;30.86;52.81;100184.25;689744;28;1241;-78
2023/08/25 13:14:23;;;;;;;3.97;2.10;;;;;;;30.76;53.41;100171.41;686333;28;1551;-79
2023/08/25 13:14:43;;;;;;;3.47;2.00;;;;;;;30.66;52.82;100172.97;686039;28;1052;-78
2023/08/25 13:15:07;;;;;;;3.30;2.03;;;;;;;30.62;52.88;100177.69;684354;28;1056;-78
2023/08/25 13:15:28;;;;;;;3.47;2.00;;;;;;;30.53;52.80;100182.81;685769;28;1919;-79
2023/08/25 13:15:49;;;;;;;3.40;2.00;;;;;;;30.34;53.00;100179.50;687117;28;1350;-79
2023/08/25 13:16:10;;;;;;;4.43;1.92;;;;;;;30.19;53.01;100177.81;687268;28;1833;-78
2023/08/25 13:16:31;;;;;;;4.30;2.00;;;;;;;30.04;52.92;100176.94;687025;28;1169;-78
2023/08/25 13:16:51;;;;;;;4.20;1.90;;;;;;;29.93;53.21;100191.09;682828;28;1123;-78
2023/08/25 13:17:12;;;;;;;2.70;1.90;;;;;;;29.71;53.69;100184.34;681514;29;1522;-74
2023/08/25 13:17:34;;;;;;;3.03;2.00;;;;;;;29.54;54.70;100182.69;680862;28;2137;-79
2023/08/25 13:17:54;;;;;;;3.50;2.15;;;;;;;29.47;55.01;100179.53;682358;28;1116;-80
2023/08/25 13:18:15;;;;;;;3.60;2.10;;;;;;;29.42;55.60;100181.59;684861;28;1032;-80
2023/08/25 13:18:37;;;;;;;3.15;2.00;;;;;;;29.29;55.96;100166.25;684897;28;1048;-86
2023/08/25 13:18:58;;;;;;;3.38;2.20;;;;;;;29.31;55.88;100170.66;682445;28;1261;-82
2023/08/25 13:19:19;;;;;;;3.00;1.88;;;;;;;29.24;55.65;100173.72;683096;28;1634;-82
2023/08/25 13:19:39;;;;;;;3.92;2.05;;;;;;;29.23;55.33;100182.72;681539;28;1316;-83
2023/08/25 13:20:01;;;;;;;3.80;1.93;;;;;;;29.10;55.25;100176.34;683784;28;974;-83
2023/08/25 13:20:22;;;;;;;4.22;2.00;;;;;;;29.01;55.44;100178.63;680454;29;1435;-84
2023/08/25 13:20:42;;;;;;;3.30;2.00;;;;;;;28.94;55.76;100181.78;684402;28;1926;-83
2023/08/25 13:21:04;;;;;;;4.20;2.30;;;;;;;28.84;56.02;100179.59;687214;28;1171;-82
2023/08/25 13:21:24;;;;;;;4.05;2.28;;;;;;;28.74;55.89;100171.22;686761;28;1807;-83
2023/08/25 13:21:45;;;;;;;4.10;2.10;;;;;;;28.80;56.41;100190.59;686557;28;1264;-83
2023/08/25 13:22:06;;;;;;;3.25;1.92;;;;;;;28.68;56.20;100165.34;679301;29;1791;-83
2023/08/25 13:22:27;;;;;;;3.38;2.20;;;;;;;28.67;56.43;100174.34;681593;29;1704;-83
2023/08/25 13:22:47;;;;;;;4.03;2.60;;;;;;;28.62;56.72;100182.66;684531;28;1143;-83
2023/08/25 13:23:08;;;;;;;4.50;2.63;;;;;;;28.60;56.80;100189.94;682006;28;1076;-83
2023/08/25 13:23:29;;;;;;;5.50;2.38;;;;;;;28.46;57.18;100199.66;682463;28;1852;-83
2023/08/25 13:23:50;;;;;;;5.18;2.05;;;;;;;28.34;57.66;100195.00;681751;29;1136;-83
2023/08/25 13:24:11;;;;;;;4.10;1.92;;;;;;;28.26;57.64;100191.81;684490;28;1367;-83
2023/08/25 13:24:32;;;;;;;4.70;2.10;;;;;;;28.23;57.96;100198.25;689415;28;1240;-82
2023/08/25 13:24:52;;;;;;;4.13;2.00;;;;;;;28.11;58.38;100183.69;684299;28;1853;-82
2023/08/25 13:25:13;;;;;;;4.60;2.20;;;;;;;28.03;58.29;100176.06;682595;28;1240;-83
2023/08/25 13:25:34;;;;;;;5.53;2.23;;;;;;;28.01;58.24;100182.44;682943;28;2720;-83
2023/08/25 13:25:54;;;;;;;5.80;2.35;;;;;;;27.99;58.73;100181.69;678443;29;2036;-83
2023/08/25 13:26:15;;;;;;;18.85;2.50;;;;;;;27.84;59.27;100176.19;679792;29;1736;-83
2023/08/25 13:26:36;;;;;;;17.40;2.30;;;;;;;27.95;59.42;100193.53;685464;28;1178;-83
2023/08/25 13:26:58;;;;;;;18.20;2.30;;;;;;;27.88;59.70;100175.09;689152;28;1479;-82
2023/08/25 13:27:19;;;;;;;5.00;2.10;;;;;;;27.95;59.82;100186.34;684398;28;1386;-83
2023/08/25 13:27:40;;;;;;;4.93;2.40;;;;;;;27.91;59.99;100182.97;683155;28;1224;-83
2023/08/25 13:28:00;;;;;;;4.57;2.40;;;;;;;27.92;59.79;100176.66;684334;28;1462;-83
2023/08/25 13:28:21;;;;;;;4.83;2.60;;;;;;;27.93;59.62;100182.88;689645;28;1102;-83
2023/08/25 13:28:42;;;;;;;4.72;2.40;;;;;;;27.84;59.30;100178.88;684525;28;1210;-82
2023/08/25 13:29:03;;;;;;;4.22;2.30;;;;;;;27.83;59.67;100192.38;686922;28;1536;-82
2023/08/25 13:29:24;;;;;;;3.97;2.15;;;;;;;27.67;59.40;100173.56;689318;28;1257;-83
2023/08/25 13:29:45;;;;;;;4.35;2.20;;;;;;;27.62;59.61;100180.00;683245;28;1132;-83
2023/08/25 13:30:07;;;;;;;4.40;2.10;;;;;;;27.48;59.53;100171.84;684238;28;1825;-82
2023/08/25 13:30:27;;;;;;;3.70;2.00;;;;;;;27.35;59.51;100164.44;679208;29;1066;-82
2023/08/25 13:30:49;;;;;;;3.10;1.90;;;;;;;27.39;59.98;100181.22;686772;28;1818;-82
2023/08/25 13:31:10;;;;;;;3.58;2.10;;;;;;;27.29;59.82;100178.16;689816;28;1200;-82
2023/08/25 13:31:30;;;;;;;5.23;2.20;;;;;;;27.18;60.37;100170.66;689636;28;1204;-82
2023/08/25 13:31:51;;;;;;;5.00;2.22;;;;;;;27.21;60.59;100183.94;686252;28;1651;-83
2023/08/25 13:32:12;;;;;;;4.85;2.25;;;;;;;27.23;60.37;100194.56;681940;29;934;-84
2023/08/25 13:32:33;;;;;;;3.47;2.20;;;;;;;27.18;60.49;100193.94;679732;29;1081;-82
2023/08/25 13:32:53;;;;;;;3.77;2.40;;;;;;;27.01;60.44;100192.94;690020;28;1207;-83
2023/08/25 13:33:14;;;;;;;4.10;2.55;;;;;;;26.99;60.55;100194.84;682753;28;1152;-83
2023/08/25 13:33:35;;;;;;;3.90;2.50;;;;;;;27.03;60.71;100193.72;685980;28;1437;-83
2023/08/25 13:33:57;;;;;;;4.50;2.50;;;;;;;27.01;61.06;100197.41;680035;29;1149;-83
2023/08/25 13:34:17;;;;;;;5.90;2.20;;;;;;;27.00;61.14;100201.03;676144;29;1924;-82
2023/08/25 13:34:38;;;;;;;5.65;2.08;;;;;;;26.96;61.08;100192.31;684598;28;1314;-83
2023/08/25 13:34:59;;;;;;;4.17;2.03;;;;;;;26.86;61.20;100167.78;686136;28;961;-83
2023/08/25 13:35:19;;;;;;;3.67;2.05;;;;;;;26.93;61.18;100189.78;686426;28;1429;-83
2023/08/25 13:35:40;;;;;;;4.00;2.15;;;;;;;26.91;61.30;100176.47;683110;28;1107;-83
2023/08/25 13:36:04;;;;;;;4.93;2.05;;;;;;;26.88;61.90;100173.09;684946;28;2524;-84
2023/08/25 13:36:25;;;;;;;7.60;2.30;;;;;;;26.81;61.84;100165.34;682561;28;1492;-83
2023/08/25 13:36:46;;;;;;;7.97;2.38;;;;;;;26.79;62.05;100153.88;685166;28;1312;-83
2023/08/25 13:37:07;;;;;;;5.80;2.37;;;;;;;26.79;62.17;100150.31;684742;28;1294;-82
2023/08/25 13:37:27;;;;;;;4.90;2.50;;;;;;;26.85;62.01;100152.69;683316;28;1080;-82
2023/08/25 13:37:48;;;;;;;4.22;2.40;;;;;;;26.90;62.05;100152.44;682737;28;1148;-83
2023/08/25 13:38:12;;;;;;;4.07;2.33;;;;;;;26.83;62.05;100142.06;679906;29;1160;-82
2023/08/25 13:38:33;;;;;;;3.53;2.10;;;;;;;26.89;61.89;100150.72;679649;28;1442;-82
2023/08/25 13:38:54;;;;;;;3.25;2.28;;;;;;;26.86;61.94;100135.69;682787;29;1135;-82
2023/08/25 13:39:14;;;;;;;4.50;2.53;;;;;;;26.91;62.43;100143.47;685332;28;1069;-83
2023/08/25 13:39:38;;;;;;;4.83;2.63;;;;;;;26.86;62.13;100134.81;690334;28;1518;-83
2023/08/25 13:39:59;;;;;;;4.80;2.67;;;;;;;26.99;62.47;100151.13;685238;28;1263;-82
2023/08/25 13:40:20;;;;;;;5.05;2.70;;;;;;;26.97;62.64;100144.03;682665;29;1084;-83
2023/08/25 13:40:41;;;;;;;4.97;2.58;;;;;;;27.03;62.69;100142.84;679108;29;1583;-83
2023/08/25 13:41:01;;;;;;;5.55;2.47;;;;;;;27.07;62.44;100133.78;685014;28;1935;-83
2023/08/25 13:41:22;;;;;;;4.73;2.37;;;;;;;27.18;62.22;100140.38;680060;29;1082;-83
2023/08/25 13:41:42;;;;;;;5.55;2.60;;;;;;;27.17;62.03;100133.28;686773;28;1321;-83
2023/08/25 13:42:04;;;;;;;5.00;2.60;;;;;;;27.18;62.14;100135.00;682486;28;1107;-84
2023/08/25 13:42:25;;;;;;;3.67;2.47;;;;;;;27.25;61.50;100139.09;685204;28;1343;-83
2023/08/25 13:42:46;;;;;;;3.40;2.40;;;;;;;27.32;61.46;100145.88;686059;28;1210;-83
2023/08/25 13:43:07;;;;;;;3.13;2.20;;;;;;;27.38;61.46;100156.25;687857;28;1607;-83
2023/08/25 13:43:28;;;;;;;3.70;2.20;;;;;;;27.48;61.25;100164.66;685237;28;1083;-83
2023/08/25 13:43:49;;;;;;;4.38;2.35;;;;;;;27.51;60.79;100153.81;690536;28;1301;-83
2023/08/25 13:44:10;;;;;;;5.15;2.60;;;;;;;27.63;60.46;100168.34;689956;28;1966;-83
2023/08/25 13:44:31;;;;;;;4.97;2.58;;;;;;;27.67;60.16;100150.34;690710;28;1098;-82
2023/08/25 13:44:51;;;;;;;4.60;2.47;;;;;;;27.62;59.74;100142.47;685307;28;1151;-83
2023/08/25 13:45:13;;;;;;;4.40;2.50;;;;;;;27.82;59.27;100172.75;687466;28;1462;-83
2023/08/25 13:45:34;;;;;;;4.25;2.38;;;;;;;27.75;58.92;100160.63;684771;28;1084;-83
2023/08/25 13:45:55;;;;;;;3.83;2.30;;;;;;;27.85;58.61;100167.19;686123;28;1058;-82
2023/08/25 13:46:16;;;;;;;3.50;2.10;;;;;;;27.80;58.59;100166.59;678142;29;1162;-82
2023/08/25 13:46:36;;;;;;;3.30;2.00;;;;;;;27.81;58.58;100162.97;688871;28;1196;-83
2023/08/25 13:46:57;;;;;;;3.50;2.00;;;;;;;27.86;58.52;100173.44;685440;28;1203;-83
2023/08/25 13:47:18;;;;;;;3.80;2.20;;;;;;;27.79;58.63;100164.88;682389;28;1355;-83
2023/08/25 13:47:38;;;;;;;4.22;2.30;;;;;;;27.81;58.62;100170.13;679843;29;1304;-84
2023/08/25 13:47:59;;;;;;;4.30;2.00;;;;;;;27.73;58.28;100158.00;682545;29;1418;-83
2023/08/25 13:48:20;;;;;;;5.13;1.90;;;;;;;27.71;57.95;100159.06;686060;28;1477;-83
2023/08/25 13:48:40;;;;;;;4.88;1.80;;;;;;;27.72;57.96;100172.38;685296;28;1209;-83
2023/08/25 13:49:01;;;;;;;4.10;2.10;;;;;;;27.62;57.99;100155.03;685297;28;1154;-82
2023/08/25 13:49:22;;;;;;;3.28;2.10;;;;;;;27.64;58.46;100166.53;682383;29;1594;-83
2023/08/25 13:49:42;;;;;;;3.67;2.03;;;;;;;27.54;58.89;100146.53;684421;28;1115;-83
2023/08/25 13:50:03;;;;;;;3.22;1.80;;;;;;;27.59;59.25;100161.41;686560;28;1452;-83
2023/08/25 13:50:24;;;;;;;4.22;1.98;;;;;;;27.57;59.43;100157.06;682473;28;1646;-82
2023/08/25 13:50:45;;;;;;;4.32;2.15;;;;;;;27.62;58.99;100163.91;688830;28;1273;-82
2023/08/25 13:51:11;;;;;;;3.77;2.27;;;;;;;27.55;58.87;100159.88;687957;28;1146;-83
2023/08/25 13:51:31;;;;;;;3.55;2.20;;;;;;;27.43;58.54;100149.78;685462;28;1900;-83
2023/08/25 13:51:52;;;;;;;3.33;2.30;;;;;;;27.43;58.73;100171.22;685306;28;991;-83
2023/08/25 13:52:13;;;;;;;3.27;2.20;;;;;;;27.30;58.72;100150.41;680151;29;1092;-83
2023/08/25 13:52:34;;;;;;;3.10;2.20;;;;;;;27.32;58.54;100164.63;687355;28;1308;-83
2023/08/25 13:52:55;;;;;;;3.45;2.00;;;;;;;27.32;58.60;100169.97;687906;28;1116;-83
2023/08/25 13:53:15;;;;;;;4.00;2.10;;;;;;;27.17;58.72;100154.72;688063;28;1079;-83
2023/08/25 13:53:38;;;;;;;3.75;2.10;;;;;;;27.19;58.61;100163.53;688008;28;1191;-83
2023/08/25 13:54:02;;;;;;;2.80;1.90;;;;;;;27.18;58.92;100161.78;685292;28;1174;-83
2023/08/25 13:54:22;;;;;;;3.30;2.00;;;;;;;27.16;58.70;100159.19;679957;29;1212;-83
2023/08/25 13:54:43;;;;;;;3.20;1.90;;;;;;;27.33;58.64;100176.19;684193;28;1585;-83
2023/08/25 13:55:05;;;;;;;3.23;2.10;;;;;;;27.38;58.24;100180.34;685179;28;1132;-83
2023/08/25 13:55:26;;;;;;;3.33;2.20;;;;;;;27.39;58.20;100167.84;682734;29;1095;-83
2023/08/25 13:55:46;;;;;;;3.70;2.47;;;;;;;27.46;57.88;100161.22;689982;28;1425;-83
2023/08/25 13:56:07;;;;;;;3.90;2.50;;;;;;;27.68;57.92;100164.59;682606;28;1153;-83
2023/08/25 13:56:28;;;;;;;3.40;2.35;;;;;;;28.02;57.76;100179.69;685249;28;1190;-82
2023/08/25 13:56:49;;;;;;;3.53;2.40;;;;;;;28.24;57.67;100174.94;687132;28;1302;-83
2023/08/25 13:57:09;;;;;;;3.10;2.25;;;;;;;28.44;57.49;100174.72;679941;29;1438;-84
2023/08/25 13:57:30;;;;;;;3.40;2.40;;;;;;;28.57;57.33;100163.28;679838;29;1337;-84
2023/08/25 13:57:51;;;;;;;3.17;2.20;;;;;;;28.80;56.99;100166.44;682606;29;1273;-83
2023/08/25 13:58:12;;;;;;;3.75;2.40;;;;;;;28.81;56.52;100160.09;686556;28;1187;-83
2023/08/25 13:58:33;;;;;;;4.60;2.40;;;;;;;28.85;55.99;100159.84;682475;28;1263;-83
2023/08/25 13:58:53;;;;;;;4.93;2.60;;;;;;;28.94;55.97;100177.28;683602;28;1174;-83
2023/08/25 13:59:14;;;;;;;4.50;2.30;;;;;;;28.98;56.09;100169.91;685275;28;1288;-83
2023/08/25 13:59:37;;;;;;;4.07;2.40;;;;;;;29.05;56.26;100167.69;685237;28;1033;-83
2023/08/25 13:59:58;;;;;;;4.15;2.30;;;;;;;29.19;56.38;100177.63;682500;29;1352;-83
2023/08/25 14:00:19;;;;;;;5.80;2.55;;;;;;;29.22;55.91;100159.50;679737;29;1041;-83
2023/08/25 14:00:41;;;;;;;5.45;2.30;;;;;;;29.28;55.90;100145.69;686898;28;1426;-83
2023/08/25 14:01:02;;;;;;;4.30;2.30;;;;;;;29.50;55.54;100167.75;687762;28;1906;-83
2023/08/25 14:01:22;;;;;;;4.30;2.40;;;;;;;29.70;54.78;100163.81;680686;29;1358;-83
2023/08/25 14:01:43;;;;;;;4.70;2.30;;;;;;;29.80;54.61;100156.88;682655;28;1450;-83
2023/08/25 14:02:06;;;;;;;4.63;2.40;;;;;;;29.98;54.58;100162.03;685263;28;1293;-83